Time;durP1;ratioP1;P1;durP2;ratioP2;P2;SDS_P1;SDS_P2;PMS_P1;PMS_P2;Temp;Humidity;BMP_temperature;BMP_pressure;BME280_temperature;BME280_humidity;BME280_pressure;Samples;Min_cycle;Max_cycle;Signal;HPM_P1;HPM_P2
2021/12/08 00:01:14;;;;;;;54.08;21.38;;;;;;;0.01;80.41;101129.50;5043048;28;20063;-54
2021/12/08 00:03:39;;;;;;;52.42;20.88;;;;;;;0.03;80.55;101128.34;5037862;28;20071;-54
2021/12/08 00:06:05;;;;;;;53.50;22.02;;;;;;;0.01;80.41;101127.69;5043563;28;20032;-55
2021/12/08 00:08:33;;;;;;;54.40;22.17;;;;;;;0.02;80.40;101118.81;5041144;28;20550;-54
2021/12/08 00:13:29;;;;;;;56.50;22.65;;;;;;;-0.04;80.24;101117.63;5035488;28;20091;-54
2021/12/08 00:15:58;;;;;;;53.72;20.65;;;;;;;-0.03;80.60;101121.09;5038446;28;20028;-51
2021/12/08 00:18:28;;;;;;;53.28;20.63;;;;;;;0.00;80.46;101118.16;5033015;28;20040;-55
2021/12/08 00:20:56;;;;;;;54.90;22.25;;;;;;;-0.04;80.41;101120.28;5038776;28;20094;-53
2021/12/08 00:23:23;;;;;;;55.17;22.77;;;;;;;-0.04;80.72;101116.81;5036185;28;20035;-55
2021/12/08 00:25:49;;;;;;;62.55;24.13;;;;;;;-0.02;80.79;101113.03;5036926;28;20029;-51
2021/12/08 00:28:15;;;;;;;59.42;23.10;;;;;;;-0.02;81.06;101112.19;5039058;28;20036;-53
2021/12/08 00:30:45;;;;;;;64.95;23.55;;;;;;;0.03;80.42;101117.81;5039018;28;20494;-54
2021/12/08 00:33:11;;;;;;;71.88;25.10;;;;;;;0.04;80.77;101110.72;5040702;28;20051;-51
2021/12/08 00:35:38;;;;;;;67.45;24.95;;;;;;;-0.02;81.23;101110.38;5037475;28;20025;-54
2021/12/08 00:38:04;;;;;;;67.25;25.40;;;;;;;0.03;80.51;101115.16;5037792;28;20119;-55
2021/12/08 00:40:31;;;;;;;68.18;26.10;;;;;;;-0.03;81.26;101119.28;5041167;28;20033;-51
2021/12/08 00:42:57;;;;;;;62.90;26.15;;;;;;;0.01;81.10;101117.16;5039448;28;20025;-51
2021/12/08 00:45:24;;;;;;;70.10;24.50;;;;;;;0.07;80.83;101127.00;5037287;28;20029;-54
2021/12/08 00:47:51;;;;;;;62.22;24.08;;;;;;;0.03;81.32;101114.34;5038298;28;20053;-54
2021/12/08 00:50:18;;;;;;;62.08;24.60;;;;;;;0.07;80.94;101115.66;5037633;28;20139;-52
2021/12/08 00:52:44;;;;;;;53.83;23.40;;;;;;;0.08;80.76;101115.47;5040644;28;20074;-51
2021/12/08 00:55:13;;;;;;;59.60;23.70;;;;;;;0.00;80.88;101107.63;5038503;28;20036;-51
2021/12/08 00:57:38;;;;;;;56.38;22.17;;;;;;;0.01;80.66;101098.72;5040714;28;20104;-51
2021/12/08 01:00:11;;;;;;;54.08;22.42;;;;;;;-0.02;80.80;101104.28;5034863;28;20029;-55
2021/12/08 01:02:39;;;;;;;58.92;21.60;;;;;;;0.04;81.03;101103.63;5035686;28;20025;-55
2021/12/08 01:05:09;;;;;;;62.47;23.23;;;;;;;0.01;80.96;101101.34;5039924;28;20021;-56
2021/12/08 01:07:34;;;;;;;63.35;21.63;;;;;;;0.02;81.08;101108.25;5038338;28;20025;-54
2021/12/08 01:10:00;;;;;;;55.78;21.75;;;;;;;0.02;80.93;101097.72;5041271;28;20218;-55
2021/12/08 01:12:26;;;;;;;53.42;21.58;;;;;;;0.04;80.81;101101.00;5037636;28;20463;-56
2021/12/08 01:14:51;;;;;;;51.05;20.85;;;;;;;0.06;80.50;101087.66;5035987;28;20029;-56
2021/12/08 01:17:17;;;;;;;49.42;20.80;;;;;;;0.04;80.23;101093.09;5035516;28;20037;-55
2021/12/08 01:19:42;;;;;;;47.28;19.75;;;;;;;0.01;80.71;101090.81;5038274;28;20122;-52
2021/12/08 01:22:08;;;;;;;58.42;21.50;;;;;;;0.01;80.67;101079.47;5038547;28;20036;-54
2021/12/08 01:24:33;;;;;;;53.58;21.20;;;;;;;-0.01;80.97;101082.22;5034683;28;20483;-54
2021/12/08 01:26:59;;;;;;;49.08;19.50;;;;;;;0.00;80.52;101078.63;5039077;28;20478;-53
2021/12/08 01:29:25;;;;;;;56.20;21.67;;;;;;;0.01;80.17;101058.38;5034808;28;20017;-54
2021/12/08 01:31:50;;;;;;;49.83;21.55;;;;;;;0.00;80.24;101060.19;5034396;28;20033;-54
2021/12/08 01:34:16;;;;;;;59.83;22.98;;;;;;;-0.01;80.42;101061.97;5036828;28;20541;-56
2021/12/08 01:36:42;;;;;;;56.10;20.67;;;;;;;-0.03;80.80;101048.16;5039518;28;20031;-53
2021/12/08 01:39:08;;;;;;;55.63;21.77;;;;;;;-0.04;80.61;101040.44;5037489;28;20040;-53
2021/12/08 01:41:36;;;;;;;59.95;22.83;;;;;;;-0.10;80.59;101039.31;5055113;28;20049;-56
2021/12/08 01:46:47;;;;;;;54.70;22.27;;;;;;;-0.05;80.96;101025.63;5037561;28;20044;-55
2021/12/08 01:49:14;;;;;;;60.15;23.40;;;;;;;-0.06;80.86;101022.16;5037248;28;20392;-56
2021/12/08 01:51:39;;;;;;;53.20;22.02;;;;;;;-0.03;80.61;101010.47;5035416;28;20026;-55
2021/12/08 01:54:06;;;;;;;64.30;22.63;;;;;;;-0.06;80.77;101005.53;5057731;22;20095;-82
2021/12/08 01:56:34;;;;;;;59.38;22.65;;;;;;;-0.05;80.64;101002.72;5061778;28;20040;-82
2021/12/08 01:59:03;;;;;;;59.72;22.05;;;;;;;0.00;80.28;101004.88;5056567;28;20024;-82
2021/12/08 02:01:30;;;;;;;59.55;23.75;;;;;;;-0.06;80.44;101003.72;5065586;28;20017;-82
2021/12/08 02:03:56;;;;;;;60.33;22.38;;;;;;;-0.03;80.40;100989.38;5064314;28;20027;-82
2021/12/08 02:06:22;;;;;;;52.83;20.45;;;;;;;-0.01;79.96;100982.13;5048228;28;20028;-82
2021/12/08 02:08:52;;;;;;;60.20;22.08;;;;;;;-0.07;80.11;100988.09;5045386;28;20024;-82
2021/12/08 02:11:20;;;;;;;58.38;22.85;;;;;;;-0.11;80.27;100976.28;5047591;28;20063;-82
2021/12/08 02:13:46;;;;;;;52.83;22.70;;;;;;;-0.14;80.43;100961.66;5060190;28;20131;-82
2021/12/08 02:16:14;;;;;;;58.67;21.33;;;;;;;-0.16;80.40;100958.38;5044988;28;20052;-82
2021/12/08 02:18:43;;;;;;;57.72;22.42;;;;;;;-0.16;80.30;100961.00;5046790;28;20086;-82
2021/12/08 02:21:33;;;;;;;64.35;23.95;;;;;;;-0.20;80.35;100950.97;5060081;28;20055;-83
2021/12/08 02:24:02;;;;;;;60.58;21.83;;;;;;;-0.21;80.35;100944.88;5061616;28;20025;-83
2021/12/08 02:26:28;;;;;;;56.75;20.88;;;;;;;-0.17;80.24;100940.09;5048083;28;20020;-83
2021/12/08 02:28:55;;;;;;;51.30;21.98;;;;;;;-0.18;80.30;100939.28;5049556;28;20025;-82
2021/12/08 02:31:32;;;;;;;59.20;21.15;;;;;;;-0.17;79.89;100943.56;5044363;28;20029;-82
2021/12/08 02:47:52;;;;;;;54.30;20.77;;;;;;;-0.27;79.83;100913.16;5062766;28;20098;-83
2021/12/08 02:50:27;;;;;;;57.58;22.77;;;;;;;-0.33;79.89;100910.22;5065607;28;20362;-83
2021/12/08 02:52:53;;;;;;;58.92;24.70;;;;;;;-0.32;80.33;100918.94;5045646;28;20032;-84
2021/12/08 02:55:19;;;;;;;57.97;20.27;;;;;;;-0.37;80.32;100903.66;5043216;28;20025;-84
2021/12/08 02:57:45;;;;;;;62.83;23.42;;;;;;;-0.34;79.92;100898.06;5047270;28;20021;-83
2021/12/08 03:00:17;;;;;;;63.38;22.85;;;;;;;-0.33;80.27;100894.44;5047214;28;20020;-83
2021/12/08 03:02:42;;;;;;;59.78;21.98;;;;;;;-0.32;80.11;100898.72;5046552;28;20547;-84
2021/12/08 03:05:08;;;;;;;55.53;20.20;;;;;;;-0.40;80.48;100885.56;5050951;28;20134;-84
2021/12/08 03:07:34;;;;;;;53.13;21.27;;;;;;;-0.38;80.00;100891.47;5067908;28;20153;-84
2021/12/08 03:10:09;;;;;;;48.65;22.13;;;;;;;-0.38;80.14;100888.84;5048280;28;20025;-84
2021/12/08 03:12:34;;;;;;;55.90;21.63;;;;;;;-0.41;80.17;100880.47;5048584;28;20069;-84
2021/12/08 03:15:00;;;;;;;52.50;21.33;;;;;;;-0.40;80.36;100882.13;5059268;28;20416;-83
2021/12/08 03:17:26;;;;;;;56.88;22.27;;;;;;;-0.41;80.11;100883.13;5046543;28;20024;-83
2021/12/08 03:19:51;;;;;;;61.35;23.25;;;;;;;-0.42;80.33;100878.84;5063568;28;20039;-83
2021/12/08 03:22:17;;;;;;;64.40;24.20;;;;;;;-0.41;80.33;100886.56;5049451;28;20111;-83
2021/12/08 03:24:46;;;;;;;57.47;22.13;;;;;;;-0.40;80.58;100892.66;5044214;28;20021;-83
2021/12/08 03:27:15;;;;;;;57.63;22.42;;;;;;;-0.43;80.09;100883.28;5065181;28;20135;-84
2021/12/08 03:30:00;;;;;;;52.72;22.20;;;;;;;-0.46;80.50;100875.75;5064280;28;20024;-83
2021/12/08 03:32:36;;;;;;;55.22;20.13;;;;;;;-0.45;80.30;100885.28;5046751;28;20031;-83
2021/12/08 03:35:04;;;;;;;49.15;17.88;;;;;;;-0.47;80.41;100883.81;5068961;28;20036;-84
2021/12/08 03:37:33;;;;;;;58.88;21.17;;;;;;;-0.45;80.73;100884.47;5046037;28;20036;-84
2021/12/08 03:40:03;;;;;;;54.15;22.60;;;;;;;-0.46;80.60;100883.66;5052664;28;20025;-83
2021/12/08 03:42:30;;;;;;;54.00;21.75;;;;;;;-0.41;80.33;100889.19;5050628;28;20116;-84
2021/12/08 03:45:00;;;;;;;46.30;21.35;;;;;;;-0.39;79.84;100886.41;5065868;28;20017;-84
2021/12/08 03:47:29;;;;;;;55.67;20.98;;;;;;;-0.46;80.26;100881.00;5050048;28;20123;-84
2021/12/08 03:49:59;;;;;;;49.53;20.75;;;;;;;-0.46;80.23;100883.66;5051430;28;20114;-84
2021/12/08 03:52:26;;;;;;;57.08;22.25;;;;;;;-0.44;80.58;100886.91;5045934;28;20056;-84
2021/12/08 03:54:51;;;;;;;50.67;19.70;;;;;;;-0.43;80.21;100888.56;5066501;28;20028;-84
2021/12/08 03:57:17;;;;;;;52.85;20.75;;;;;;;-0.43;80.30;100899.09;5044981;28;20144;-84
2021/12/08 03:59:43;;;;;;;48.35;19.95;;;;;;;-0.41;80.26;100897.09;5064160;28;20017;-84
2021/12/08 04:02:09;;;;;;;47.88;20.85;;;;;;;-0.42;80.10;100892.00;5049754;28;20039;-84
2021/12/08 04:04:43;;;;;;;47.85;20.55;;;;;;;-0.45;80.26;100885.28;5051212;28;20028;-84
2021/12/08 04:07:12;;;;;;;52.67;20.25;;;;;;;-0.48;80.58;100892.72;5047309;28;20028;-84
2021/12/08 04:09:42;;;;;;;52.00;20.50;;;;;;;-0.45;80.79;100901.06;5049162;28;20032;-83
2021/12/08 04:12:11;;;;;;;47.33;20.50;;;;;;;-0.43;80.50;100890.38;5042890;28;20028;-84
2021/12/08 04:14:46;;;;;;;46.47;19.55;;;;;;;-0.46;80.23;100883.66;5047473;28;20031;-84
2021/12/08 04:17:33;;;;;;;49.97;21.35;;;;;;;-0.45;80.76;100877.38;5047369;28;20024;-84
2021/12/08 04:20:04;;;;;;;54.30;21.45;;;;;;;-0.45;80.19;100887.91;5059398;28;20020;-84
2021/12/08 04:22:35;;;;;;;53.42;21.70;;;;;;;-0.44;80.28;100875.56;5046494;28;20168;-84
2021/12/08 04:25:06;;;;;;;53.05;20.70;;;;;;;-0.45;80.89;100873.94;5057622;28;20761;-84
2021/12/08 04:27:35;;;;;;;56.85;22.67;;;;;;;-0.47;80.70;100871.47;5049584;28;20115;-84
2021/12/08 04:30:08;;;;;;;55.08;19.98;;;;;;;-0.43;80.74;100874.56;5069441;28;20109;-84
2021/12/08 04:32:35;;;;;;;44.95;20.35;;;;;;;-0.46;80.80;100873.13;5061602;28;20086;-83
2021/12/08 04:35:04;;;;;;;60.90;20.75;;;;;;;-0.43;80.59;100869.31;5051471;28;20398;-84
2021/12/08 04:37:36;;;;;;;56.45;20.85;;;;;;;-0.43;80.66;100862.22;5043919;28;20036;-84
2021/12/08 04:40:19;;;;;;;54.42;20.35;;;;;;;-0.44;80.84;100865.84;5047496;28;20103;-84
2021/12/08 04:43:05;;;;;;;51.13;20.55;;;;;;;-0.41;80.46;100868.16;5047176;28;20056;-83
2021/12/08 04:45:52;;;;;;;49.90;21.52;;;;;;;-0.44;80.24;100865.84;5056246;28;20086;-84
2021/12/08 05:00:16;;;;;;;47.85;20.27;;;;;;;-0.48;80.48;100861.13;5072640;28;19916;-51
2021/12/08 05:00:20;;;;;;;44.97;19.65;;;;;;;-0.45;80.33;100866.03;5070171;28;20085;-52
2021/12/08 05:05:09;;;;;;;46.55;18.13;;;;;;;-0.47;80.25;100871.47;5059754;28;20519;-54
2021/12/08 05:10:09;;;;;;;50.63;18.92;;;;;;;-0.54;80.73;100865.25;5062588;28;20149;-51
2021/12/08 05:12:36;;;;;;;51.33;20.25;;;;;;;-0.50;80.51;100876.28;5059992;28;20020;-55
2021/12/08 05:15:10;;;;;;;53.33;20.98;;;;;;;-0.50;80.32;100866.56;5062771;28;20382;-52
2021/12/08 05:17:43;;;;;;;51.78;22.77;;;;;;;-0.49;80.60;100873.47;5057349;28;20111;-55
2021/12/08 05:20:22;;;;;;;51.50;21.70;;;;;;;-0.48;80.27;100872.47;5061194;28;20174;-53
2021/12/08 05:22:53;;;;;;;48.20;17.75;;;;;;;-0.46;80.45;100877.56;5061137;28;20617;-54
2021/12/08 05:25:24;;;;;;;50.33;21.25;;;;;;;-0.46;80.17;100880.19;5060162;28;20035;-54
2021/12/08 05:27:54;;;;;;;47.15;18.40;;;;;;;-0.44;80.27;100879.03;5061403;28;20034;-54
2021/12/08 05:30:25;;;;;;;51.15;20.80;;;;;;;-0.46;80.44;100873.13;5058173;28;20387;-53
2021/12/08 05:32:51;;;;;;;49.15;20.33;;;;;;;-0.49;80.82;100865.56;5055100;28;20031;-54
2021/12/08 05:35:20;;;;;;;51.55;20.48;;;;;;;-0.46;80.68;100875.75;5059664;28;20029;-56
2021/12/08 05:37:46;;;;;;;50.53;18.73;;;;;;;-0.46;80.30;100869.66;5059529;28;20030;-54
2021/12/08 05:40:17;;;;;;;45.42;18.60;;;;;;;-0.48;80.34;100869.84;5061068;28;20032;-55
2021/12/08 05:42:43;;;;;;;50.10;19.65;;;;;;;-0.45;80.36;100868.66;5054224;28;20056;-52
2021/12/08 05:45:15;;;;;;;50.13;19.52;;;;;;;-0.40;80.14;100872.41;5053887;28;20025;-55
2021/12/08 05:47:42;;;;;;;50.80;19.73;;;;;;;-0.42;80.46;100878.84;5059253;28;20270;-54
2021/12/08 05:50:10;;;;;;;48.53;19.08;;;;;;;-0.41;80.09;100869.97;5059932;28;20032;-53
2021/12/08 05:52:36;;;;;;;54.47;21.33;;;;;;;-0.43;80.24;100867.50;5055974;28;20493;-54
2021/12/08 05:55:04;;;;;;;53.35;20.20;;;;;;;-0.41;80.06;100862.06;5061420;28;20032;-55
2021/12/08 05:57:35;;;;;;;48.42;19.73;;;;;;;-0.45;80.38;100869.50;5059583;28;20072;-53
2021/12/08 06:00:07;;;;;;;49.92;19.50;;;;;;;-0.45;80.33;100873.94;5060650;28;20032;-54
2021/12/08 06:02:36;;;;;;;51.78;18.45;;;;;;;-0.39;79.98;100871.41;5060371;28;20037;-54
2021/12/08 06:05:05;;;;;;;45.88;19.25;;;;;;;-0.37;79.72;100871.25;5043681;28;20021;-53
2021/12/08 06:07:30;;;;;;;52.90;18.30;;;;;;;-0.44;80.18;100871.13;5059059;28;20028;-55
2021/12/08 06:09:59;;;;;;;46.65;18.95;;;;;;;-0.46;80.07;100870.47;5057422;28;20058;-54
2021/12/08 06:12:26;;;;;;;50.00;19.42;;;;;;;-0.45;80.00;100872.13;5060576;28;20382;-56
2021/12/08 06:14:55;;;;;;;46.70;18.00;;;;;;;-0.45;79.84;100869.50;5052702;28;20020;-57
2021/12/08 06:17:23;;;;;;;44.90;18.33;;;;;;;-0.47;80.12;100868.84;5056523;28;20506;-55
2021/12/08 06:19:50;;;;;;;46.53;18.98;;;;;;;-0.42;80.26;100863.88;5059435;28;20039;-51
2021/12/08 06:22:18;;;;;;;46.58;19.35;;;;;;;-0.45;80.07;100858.13;5054562;28;20016;-52
2021/12/08 06:24:44;;;;;;;51.17;19.48;;;;;;;-0.43;79.98;100864.88;5057897;28;20430;-51
2021/12/08 06:27:11;;;;;;;46.45;18.75;;;;;;;-0.40;79.88;100861.88;5056146;28;20060;-53
2021/12/08 06:29:38;;;;;;;56.92;21.52;;;;;;;-0.42;79.87;100863.88;5056537;28;20067;-52
2021/12/08 06:32:06;;;;;;;44.53;19.02;;;;;;;-0.42;79.70;100866.50;5059711;28;20623;-51
2021/12/08 06:34:33;;;;;;;47.88;19.10;;;;;;;-0.44;80.03;100871.13;5058976;28;20032;-51
2021/12/08 06:37:13;;;;;;;46.63;19.10;;;;;;;-0.42;79.61;100874.41;5057231;28;20074;-53
2021/12/08 06:39:46;;;;;;;50.13;17.75;;;;;;;-0.39;79.67;100867.97;5060048;28;20027;-51
2021/12/08 06:42:15;;;;;;;43.03;18.45;;;;;;;-0.39;79.79;100874.06;5055089;28;20032;-53
2021/12/08 06:44:44;;;;;;;39.40;15.77;;;;;;;-0.43;79.61;100869.31;5045174;28;20421;-55
2021/12/08 06:47:16;;;;;;;43.67;18.13;;;;;;;-0.49;79.54;100868.19;5056811;28;20197;-53
2021/12/08 06:49:45;;;;;;;45.42;17.70;;;;;;;-0.45;79.86;100869.50;5055397;28;20099;-51
2021/12/08 06:52:16;;;;;;;44.45;18.85;;;;;;;-0.42;79.57;100873.59;5055198;28;20489;-50
2021/12/08 06:54:52;;;;;;;45.95;16.70;;;;;;;-0.46;80.01;100875.75;5055941;28;20028;-50
2021/12/08 06:57:30;;;;;;;43.80;17.25;;;;;;;-0.45;80.05;100874.75;5058709;28;20166;-51
2021/12/08 07:00:01;;;;;;;44.55;17.50;;;;;;;-0.41;79.72;100870.78;5057579;28;20070;-55
2021/12/08 07:05:31;;;;;;;48.90;18.52;;;;;;;-0.45;80.26;100869.50;5055812;28;20035;-53
2021/12/08 07:08:07;;;;;;;42.15;17.40;;;;;;;-0.37;79.76;100856.25;5057153;28;20557;-50
2021/12/08 07:10:39;;;;;;;49.40;19.42;;;;;;;-0.37;79.43;100856.25;5055941;28;20025;-56
2021/12/08 07:13:09;;;;;;;46.50;18.23;;;;;;;-0.35;79.73;100861.38;5059549;28;20031;-53
2021/12/08 07:15:41;;;;;;;43.65;19.02;;;;;;;-0.34;79.54;100863.84;5055113;28;20025;-54
2021/12/08 07:18:14;;;;;;;43.38;16.65;;;;;;;-0.31;79.39;100868.75;5061026;28;20442;-51
2021/12/08 07:20:47;;;;;;;45.78;19.20;;;;;;;-0.38;79.45;100865.16;5060607;28;20017;-52
2021/12/08 07:23:25;;;;;;;42.80;17.92;;;;;;;-0.35;79.78;100870.09;5053873;28;20059;-52
2021/12/08 07:25:54;;;;;;;50.28;18.73;;;;;;;-0.38;79.54;100877.50;5057116;28;20059;-50
2021/12/08 07:28:22;;;;;;;47.38;17.83;;;;;;;-0.35;79.37;100878.00;5048194;28;20164;-51
2021/12/08 07:31:20;;;;;;;44.28;18.92;;;;;;;-0.37;79.62;100887.84;5059592;28;20020;-51
2021/12/08 07:33:46;;;;;;;51.10;17.70;;;;;;;-0.34;79.60;100887.53;5013166;28;20044;-55
2021/12/08 07:36:17;;;;;;;50.00;18.98;;;;;;;-0.32;79.28;100884.72;5032789;28;20039;-53
2021/12/08 07:38:46;;;;;;;45.22;17.33;;;;;;;-0.30;79.33;100882.75;5057280;28;20098;-54
2021/12/08 07:41:33;;;;;;;43.90;16.98;;;;;;;-0.34;79.55;100886.72;5056839;28;20081;-56
2021/12/08 07:44:04;;;;;;;40.45;17.52;;;;;;;-0.31;79.59;100887.19;5058902;28;20382;-54
2021/12/08 07:46:46;;;;;;;37.80;16.88;;;;;;;-0.35;79.70;100890.34;5055198;28;20029;-55
2021/12/08 07:49:28;;;;;;;40.67;17.05;;;;;;;-0.35;79.81;100885.91;5043694;28;20020;-52
2021/12/08 07:52:18;;;;;;;40.08;16.17;;;;;;;-0.34;80.00;100887.53;5058011;28;20297;-53
2021/12/08 07:54:47;;;;;;;45.10;18.48;;;;;;;-0.25;79.44;100884.84;5055535;28;20033;-53
2021/12/08 07:57:20;;;;;;;41.25;18.33;;;;;;;-0.25;79.75;100882.22;5054849;28;20520;-51
2021/12/08 07:59:49;;;;;;;44.80;16.88;;;;;;;-0.26;79.75;100893.72;5056106;28;20473;-55
2021/12/08 08:02:16;;;;;;;37.75;17.00;;;;;;;-0.28;79.63;100898.34;5042547;28;20287;-55
2021/12/08 08:04:49;;;;;;;48.92;17.95;;;;;;;-0.31;79.64;100905.63;5055725;28;20049;-52
2021/12/08 08:07:16;;;;;;;39.42;17.65;;;;;;;-0.24;79.70;100897.00;5044414;28;20028;-56
2021/12/08 08:09:44;;;;;;;42.53;17.27;;;;;;;-0.29;79.47;100901.97;5053613;28;20028;-54
2021/12/08 08:12:20;;;;;;;43.70;17.35;;;;;;;-0.28;79.40;100903.63;5053085;28;20044;-54
2021/12/08 08:14:52;;;;;;;41.33;17.15;;;;;;;-0.26;79.66;100899.00;5036859;28;20047;-56
2021/12/08 08:17:25;;;;;;;39.88;16.30;;;;;;;-0.23;79.64;100898.66;5057325;28;20028;-53
2021/12/08 08:19:51;;;;;;;41.78;17.35;;;;;;;-0.23;79.42;100888.13;5055919;28;20378;-55
2021/12/08 08:22:24;;;;;;;49.47;17.92;;;;;;;-0.28;79.94;100885.19;5053996;28;20021;-54
2021/12/08 08:24:51;;;;;;;44.78;19.60;;;;;;;-0.20;79.36;100878.03;5044619;28;20107;-56
2021/12/08 08:27:17;;;;;;;42.28;18.10;;;;;;;-0.21;79.45;100876.41;5055341;28;20082;-52
2021/12/08 08:29:43;;;;;;;41.85;17.30;;;;;;;-0.16;79.66;100873.28;5055441;28;20087;-53
2021/12/08 08:32:19;;;;;;;46.03;18.75;;;;;;;-0.16;79.24;100860.94;5053481;28;20032;-54
2021/12/08 08:34:48;;;;;;;44.65;17.55;;;;;;;-0.19;79.31;100860.44;5046797;28;20176;-51
2021/12/08 08:37:15;;;;;;;43.33;18.60;;;;;;;-0.19;79.52;100847.28;5054405;28;20055;-51
2021/12/08 08:39:46;;;;;;;44.50;17.48;;;;;;;-0.25;79.67;100850.59;5053743;28;20417;-51
2021/12/08 08:42:16;;;;;;;47.17;18.75;;;;;;;-0.27;80.02;100858.69;5055659;28;20021;-54
2021/12/08 08:45:08;;;;;;;51.17;19.40;;;;;;;-0.21;79.74;100852.72;5041189;28;20028;-51
2021/12/08 08:47:39;;;;;;;45.38;17.75;;;;;;;-0.18;79.49;100849.75;5034774;28;20032;-54
2021/12/08 08:50:09;;;;;;;39.50;18.33;;;;;;;-0.19;79.73;100855.16;5057358;28;20028;-51
2021/12/08 08:52:38;;;;;;;51.00;18.70;;;;;;;-0.18;79.65;100854.16;5053340;28;20111;-55
2021/12/08 08:55:12;;;;;;;46.15;18.80;;;;;;;-0.12;79.18;100854.31;5054614;28;20027;-53
2021/12/08 08:57:40;;;;;;;47.22;19.10;;;;;;;-0.14;79.31;100856.31;5057337;28;20024;-52
2021/12/08 09:00:25;;;;;;;50.63;20.50;;;;;;;-0.15;79.47;100845.94;5054622;28;20128;-51
2021/12/08 09:02:53;;;;;;;47.33;19.30;;;;;;;-0.08;79.46;100849.50;5057889;28;20033;-54
2021/12/08 09:05:32;;;;;;;45.03;18.73;;;;;;;-0.14;79.56;100844.94;5059797;28;20051;-52
2021/12/08 09:08:01;;;;;;;44.03;19.52;;;;;;;-0.13;79.50;100844.78;5054437;28;20032;-55
2021/12/08 09:10:36;;;;;;;46.50;17.92;;;;;;;-0.08;79.70;100841.59;5052239;28;20020;-54
2021/12/08 09:13:11;;;;;;;49.95;19.65;;;;;;;-0.04;79.52;100834.97;5053444;28;20028;-55
2021/12/08 09:15:39;;;;;;;;;;;;;;;-0.11;79.48;100832.25;5053292;28;20020;-54
2021/12/08 09:18:23;;;;;;;49.35;19.67;;;;;;;-0.04;79.43;100834.97;5053930;28;19913;-54
2021/12/08 09:20:56;;;;;;;48.28;19.70;;;;;;;-0.06;79.40;100832.53;5057146;28;20024;-53
2021/12/08 09:23:39;;;;;;;45.35;19.52;;;;;;;-0.06;79.02;100831.72;5053933;28;20021;-51
2021/12/08 09:26:11;;;;;;;48.05;18.73;;;;;;;-0.02;79.37;100835.63;5056450;28;20032;-55
2021/12/08 09:28:44;;;;;;;49.30;18.65;;;;;;;0.02;79.30;100834.28;5056393;28;20482;-55
2021/12/08 09:31:28;;;;;;;46.38;17.70;;;;;;;-0.04;79.34;100830.53;5055565;28;20301;-54
2021/12/08 09:34:05;;;;;;;41.08;18.95;;;;;;;0.02;78.76;100826.38;5053635;28;20568;-54
2021/12/08 09:36:38;;;;;;;49.00;18.90;;;;;;;0.01;78.90;100832.66;5051777;28;20044;-52
2021/12/08 09:39:12;;;;;;;43.58;18.20;;;;;;;0.00;79.04;100836.28;5056674;28;20107;-53
2021/12/08 09:42:03;;;;;;;53.33;20.30;;;;;;;-0.03;79.22;100836.63;5052611;28;20017;-55
2021/12/08 09:44:36;;;;;;;46.35;18.13;;;;;;;0.00;78.85;100836.28;5053638;28;20023;-56
2021/12/08 09:47:02;;;;;;;44.20;17.77;;;;;;;0.03;79.11;100828.03;5053457;28;20466;-55
2021/12/08 09:49:28;;;;;;;47.45;18.92;;;;;;;0.02;78.91;100833.47;5052823;28;20051;-55
2021/12/08 09:51:58;;;;;;;49.30;19.00;;;;;;;-0.01;79.25;100829.34;5056764;28;20025;-56
2021/12/08 09:54:24;;;;;;;55.42;19.33;;;;;;;-0.04;79.08;100825.25;5052242;28;20021;-52
2021/12/08 09:56:52;;;;;;;43.83;18.63;;;;;;;-0.01;78.99;100821.44;5052098;28;20367;-55
2021/12/08 09:59:21;;;;;;;41.95;17.35;;;;;;;-0.03;79.19;100812.91;5054013;28;20028;-54
2021/12/08 10:01:47;;;;;;;39.42;17.85;;;;;;;-0.08;79.19;100804.72;5054420;28;20437;-56
2021/12/08 10:04:14;;;;;;;44.72;18.63;;;;;;;-0.08;78.90;100805.53;5050409;28;20028;-51
2021/12/08 10:06:49;;;;;;;49.28;19.92;;;;;;;-0.06;79.12;100803.56;5055537;28;20056;-55
2021/12/08 10:09:16;;;;;;;45.85;18.90;;;;;;;-0.08;79.37;100794.19;5035422;28;20033;-55
2021/12/08 10:11:41;;;;;;;44.90;18.88;;;;;;;-0.06;79.26;100800.09;5052637;28;20076;-54
2021/12/08 10:14:07;;;;;;;55.63;22.10;;;;;;;-0.07;79.25;100794.00;5049022;28;20071;-53
2021/12/08 10:16:34;;;;;;;47.00;18.90;;;;;;;-0.03;79.47;100784.75;5048144;28;20033;-54
2021/12/08 10:19:00;;;;;;;49.13;19.58;;;;;;;0.03;79.41;100785.88;5052082;28;20024;-51
2021/12/08 10:21:39;;;;;;;49.05;17.50;;;;;;;0.07;78.98;100786.34;5049885;28;20021;-53
2021/12/08 10:24:31;;;;;;;59.40;20.35;;;;;;;0.02;79.47;100781.59;5058773;28;20183;-51
2021/12/08 10:27:07;;;;;;;52.17;19.05;;;;;;;0.01;79.45;100782.59;5049412;28;20076;-52
2021/12/08 10:29:33;;;;;;;49.90;18.60;;;;;;;0.07;79.25;100789.78;5053885;28;20417;-53
2021/12/08 10:32:01;;;;;;;52.90;20.40;;;;;;;0.08;79.40;100796.69;5047508;28;20089;-54
2021/12/08 10:34:35;;;;;;;61.45;21.75;;;;;;;0.06;79.36;100788.16;5057553;28;20535;-55
2021/12/08 10:37:14;;;;;;;57.30;20.55;;;;;;;0.05;79.41;100781.25;5052198;28;20314;-54
2021/12/08 10:39:48;;;;;;;54.03;22.60;;;;;;;0.03;79.45;100780.59;5055058;28;20028;-54
2021/12/08 10:42:22;;;;;;;54.97;23.05;;;;;;;0.03;79.56;100780.59;5056002;28;20543;-52
2021/12/08 10:47:43;;;;;;;57.30;21.55;;;;;;;0.11;78.93;100766.53;5050439;28;20037;-54
2021/12/08 10:55:58;;;;;;;51.97;20.63;;;;;;;0.08;79.45;100775.63;5050913;28;20183;-56
2021/12/08 10:58:27;;;;;;;61.53;22.48;;;;;;;0.09;79.81;100769.34;5049849;28;20383;-55
2021/12/08 11:00:55;;;;;;;59.20;22.65;;;;;;;0.08;79.33;100772.16;5051285;28;20082;-57
2021/12/08 11:03:21;;;;;;;61.05;21.50;;;;;;;0.08;79.67;100780.88;5055237;28;20317;-54
2021/12/08 11:05:48;;;;;;;54.65;21.13;;;;;;;0.11;79.53;100780.53;5055413;28;20509;-53
2021/12/08 11:08:21;;;;;;;58.20;21.55;;;;;;;0.13;79.26;100777.72;5054796;28;20033;-51
2021/12/08 11:10:47;;;;;;;58.92;23.63;;;;;;;0.12;79.30;100768.97;5055843;28;20056;-54
2021/12/08 11:13:15;;;;;;;53.78;21.27;;;;;;;0.13;79.32;100770.63;5055132;28;20025;-53
2021/12/08 11:15:44;;;;;;;52.53;19.17;;;;;;;0.12;79.37;100773.44;5053946;28;20029;-53
2021/12/08 11:18:13;;;;;;;56.35;20.92;;;;;;;0.11;79.30;100772.63;5054083;28;20029;-53
2021/12/08 11:20:45;;;;;;;50.63;21.58;;;;;;;0.15;79.29;100770.44;5053472;28;20021;-53
2021/12/08 11:23:15;;;;;;;59.17;21.35;;;;;;;0.11;79.28;100772.63;5056928;28;20028;-53
2021/12/08 11:25:46;;;;;;;52.38;21.33;;;;;;;0.13;79.00;100773.25;5060382;28;20033;-54
2021/12/08 11:28:23;;;;;;;57.28;21.38;;;;;;;0.13;79.19;100767.16;5059094;28;20020;-54
2021/12/08 11:30:51;;;;;;;63.40;21.67;;;;;;;0.13;79.37;100764.53;5056564;28;20029;-54
2021/12/08 11:33:24;;;;;;;59.13;21.10;;;;;;;0.14;79.53;100769.63;5053547;28;20028;-51
2021/12/08 11:36:17;;;;;;;56.67;22.20;;;;;;;0.12;79.01;100771.63;5054301;28;20028;-52
2021/12/08 11:38:45;;;;;;;64.57;21.50;;;;;;;0.17;79.44;100763.16;5053837;28;20048;-52
2021/12/08 11:41:21;;;;;;;62.20;23.95;;;;;;;0.19;79.17;100755.94;5054789;28;20029;-51
2021/12/08 11:43:58;;;;;;;59.83;21.55;;;;;;;0.15;79.31;100746.72;5055007;28;20028;-52
2021/12/08 11:46:24;;;;;;;56.70;20.83;;;;;;;0.20;79.56;100742.56;5041350;28;20029;-53
2021/12/08 11:48:57;;;;;;;53.00;22.58;;;;;;;0.20;79.27;100745.22;5037107;28;20031;-53
2021/12/08 11:51:23;;;;;;;50.30;20.10;;;;;;;0.23;79.17;100742.22;5054582;28;20105;-53
2021/12/08 11:53:49;;;;;;;60.03;22.35;;;;;;;0.26;78.90;100733.13;5054942;28;20260;-53
2021/12/08 12:41:32;;;;;;;67.88;27.30;;;;;;;-0.11;82.28;100649.72;5052816;28;20422;-48
2021/12/08 12:44:16;;;;;;;62.70;25.90;;;;;;;-0.02;81.78;100643.34;5046402;28;20064;-47
2021/12/08 12:47:05;;;;;;;68.72;26.08;;;;;;;0.00;80.66;100651.91;5041701;28;20036;-46
2021/12/08 12:49:32;;;;;;;64.20;25.80;;;;;;;0.07;80.89;100671.25;5042267;28;20033;-47
2021/12/08 12:52:00;;;;;;;59.03;25.40;;;;;;;0.11;80.57;100695.41;5040759;28;20403;-48
2021/12/08 12:54:27;;;;;;;66.50;24.27;;;;;;;0.16;80.17;100703.56;5051810;23;20044;-83
2021/12/08 12:56:54;;;;;;;62.22;25.05;;;;;;;0.14;79.69;100695.03;5054218;28;20043;-84